sensor_id;sensor_type;location;lat;lon;timestamp;P1;durP1;ratioP1;P2;durP2;ratioP2
80494;SDS011;69819;48.798;11.770;2023-06-19T00:00:09;5.75;;;4.88;;
80494;SDS011;69819;48.798;11.770;2023-06-19T00:02:41;5.68;;;5.15;;
80494;SDS011;69819;48.798;11.770;2023-06-19T00:05:08;5.20;;;4.57;;
80494;SDS011;69819;48.798;11.770;2023-06-19T00:07:35;6.05;;;4.70;;
80494;SDS011;69819;48.798;11.770;2023-06-19T00:10:03;5.80;;;4.82;;
80494;SDS011;69819;48.798;11.770;2023-06-19T00:12:30;7.28;;;4.80;;
80494;SDS011;69819;48.798;11.770;2023-06-19T00:14:56;5.25;;;4.43;;
80494;SDS011;69819;48.798;11.770;2023-06-19T00:17:21;5.90;;;4.60;;
80494;SDS011;69819;48.798;11.770;2023-06-19T00:19:50;5.38;;;4.88;;
80494;SDS011;69819;48.798;11.770;2023-06-19T00:22:17;5.22;;;4.30;;
80494;SDS011;69819;48.798;11.770;2023-06-19T00:24:43;5.85;;;4.70;;
80494;SDS011;69819;48.798;11.770;2023-06-19T00:27:08;6.85;;;5.25;;
80494;SDS011;69819;48.798;11.770;2023-06-19T00:29:34;7.78;;;5.50;;
80494;SDS011;69819;48.798;11.770;2023-06-19T00:32:00;5.47;;;4.95;;
80494;SDS011;69819;48.798;11.770;2023-06-19T00:34:28;6.97;;;5.55;;
80494;SDS011;69819;48.798;11.770;2023-06-19T00:36:54;5.28;;;4.78;;
80494;SDS011;69819;48.798;11.770;2023-06-19T00:39:21;6.47;;;5.80;;
80494;SDS011;69819;48.798;11.770;2023-06-19T00:41:51;8.73;;;5.88;;
80494;SDS011;69819;48.798;11.770;2023-06-19T00:44:17;6.53;;;5.55;;
80494;SDS011;69819;48.798;11.770;2023-06-19T00:46:43;6.40;;;5.75;;
80494;SDS011;69819;48.798;11.770;2023-06-19T00:49:09;9.20;;;5.97;;
80494;SDS011;69819;48.798;11.770;2023-06-19T00:51:37;6.72;;;5.45;;
80494;SDS011;69819;48.798;11.770;2023-06-19T00:54:03;5.78;;;5.15;;
80494;SDS011;69819;48.798;11.770;2023-06-19T00:56:30;6.30;;;5.13;;
80494;SDS011;69819;48.798;11.770;2023-06-19T00:58:59;6.65;;;5.75;;
80494;SDS011;69819;48.798;11.770;2023-06-19T01:01:26;6.00;;;5.40;;
80494;SDS011;69819;48.798;11.770;2023-06-19T01:03:53;5.88;;;5.10;;
80494;SDS011;69819;48.798;11.770;2023-06-19T01:06:20;5.70;;;5.18;;
80494;SDS011;69819;48.798;11.770;2023-06-19T01:08:56;5.57;;;5.07;;
80494;SDS011;69819;48.798;11.770;2023-06-19T01:11:33;6.05;;;5.45;;
80494;SDS011;69819;48.798;11.770;2023-06-19T01:14:08;7.03;;;5.35;;
80494;SDS011;69819;48.798;11.770;2023-06-19T01:16:43;6.10;;;5.60;;
80494;SDS011;69819;48.798;11.770;2023-06-19T01:19:10;5.80;;;5.20;;
80494;SDS011;69819;48.798;11.770;2023-06-19T01:21:45;6.00;;;5.40;;
80494;SDS011;69819;48.798;11.770;2023-06-19T01:24:13;6.05;;;5.35;;
80494;SDS011;69819;48.798;11.770;2023-06-19T01:26:39;6.10;;;5.50;;
80494;SDS011;69819;48.798;11.770;2023-06-19T01:29:06;5.55;;;5.05;;
80494;SDS011;69819;48.798;11.770;2023-06-19T01:31:35;7.00;;;5.70;;
80494;SDS011;69819;48.798;11.770;2023-06-19T01:34:29;6.18;;;5.47;;
80494;SDS011;69819;48.798;11.770;2023-06-19T01:36:57;5.93;;;5.43;;
80494;SDS011;69819;48.798;11.770;2023-06-19T01:39:24;6.65;;;5.60;;
80494;SDS011;69819;48.798;11.770;2023-06-19T01:41:51;5.68;;;5.15;;
80494;SDS011;69819;48.798;11.770;2023-06-19T01:44:19;5.82;;;5.00;;
80494;SDS011;69819;48.798;11.770;2023-06-19T01:46:49;5.90;;;5.30;;
80494;SDS011;69819;48.798;11.770;2023-06-19T01:49:16;7.15;;;5.47;;
80494;SDS011;69819;48.798;11.770;2023-06-19T01:51:42;5.72;;;5.22;;
80494;SDS011;69819;48.798;11.770;2023-06-19T01:54:08;5.65;;;5.13;;
80494;SDS011;69819;48.798;11.770;2023-06-19T01:56:33;5.38;;;4.88;;
80494;SDS011;69819;48.798;11.770;2023-06-19T01:59:00;6.07;;;5.13;;
80494;SDS011;69819;48.798;11.770;2023-06-19T02:01:26;6.20;;;5.13;;
80494;SDS011;69819;48.798;11.770;2023-06-19T02:03:52;6.00;;;5.45;;
80494;SDS011;69819;48.798;11.770;2023-06-19T02:06:18;7.05;;;4.95;;
80494;SDS011;69819;48.798;11.770;2023-06-19T02:08:43;5.70;;;5.10;;
80494;SDS011;69819;48.798;11.770;2023-06-19T02:11:09;5.53;;;4.75;;
80494;SDS011;69819;48.798;11.770;2023-06-19T02:13:35;5.80;;;4.75;;
80494;SDS011;69819;48.798;11.770;2023-06-19T02:16:01;5.10;;;4.60;;
80494;SDS011;69819;48.798;11.770;2023-06-19T02:18:27;5.10;;;4.53;;
80494;SDS011;69819;48.798;11.770;2023-06-19T02:20:53;4.50;;;4.10;;
80494;SDS011;69819;48.798;11.770;2023-06-19T02:23:18;5.38;;;4.20;;
80494;SDS011;69819;48.798;11.770;2023-06-19T02:25:44;5.00;;;4.50;;
80494;SDS011;69819;48.798;11.770;2023-06-19T02:28:10;4.93;;;4.35;;
80494;SDS011;69819;48.798;11.770;2023-06-19T02:30:35;5.22;;;4.72;;
80494;SDS011;69819;48.798;11.770;2023-06-19T02:33:01;4.70;;;4.30;;
80494;SDS011;69819;48.798;11.770;2023-06-19T02:35:27;4.80;;;4.40;;
80494;SDS011;69819;48.798;11.770;2023-06-19T02:37:53;5.03;;;4.53;;
80494;SDS011;69819;48.798;11.770;2023-06-19T02:40:19;5.60;;;4.68;;
80494;SDS011;69819;48.798;11.770;2023-06-19T02:42:44;5.30;;;4.82;;
80494;SDS011;69819;48.798;11.770;2023-06-19T02:45:10;5.22;;;4.78;;
80494;SDS011;69819;48.798;11.770;2023-06-19T02:47:36;5.45;;;4.75;;
80494;SDS011;69819;48.798;11.770;2023-06-19T02:50:02;5.45;;;4.95;;
80494;SDS011;69819;48.798;11.770;2023-06-19T02:52:29;5.70;;;5.18;;
80494;SDS011;69819;48.798;11.770;2023-06-19T02:54:55;5.53;;;5.03;;
80494;SDS011;69819;48.798;11.770;2023-06-19T02:57:21;5.30;;;4.80;;
80494;SDS011;69819;48.798;11.770;2023-06-19T02:59:47;5.38;;;4.88;;
80494;SDS011;69819;48.798;11.770;2023-06-19T03:02:12;5.80;;;5.20;;
80494;SDS011;69819;48.798;11.770;2023-06-19T03:04:39;5.80;;;5.20;;
80494;SDS011;69819;48.798;11.770;2023-06-19T03:07:06;5.05;;;4.55;;
80494;SDS011;69819;48.798;11.770;2023-06-19T03:09:32;6.90;;;5.30;;
80494;SDS011;69819;48.798;11.770;2023-06-19T03:11:57;5.80;;;5.20;;
80494;SDS011;69819;48.798;11.770;2023-06-19T03:14:23;5.63;;;4.95;;
80494;SDS011;69819;48.798;11.770;2023-06-19T03:16:49;5.45;;;4.95;;
80494;SDS011;69819;48.798;11.770;2023-06-19T03:19:15;5.53;;;5.03;;
80494;SDS011;69819;48.798;11.770;2023-06-19T03:21:40;5.40;;;4.90;;
80494;SDS011;69819;48.798;11.770;2023-06-19T03:24:07;5.65;;;5.15;;
80494;SDS011;69819;48.798;11.770;2023-06-19T03:26:32;5.50;;;5.00;;
80494;SDS011;69819;48.798;11.770;2023-06-19T03:28:58;5.88;;;5.28;;
80494;SDS011;69819;48.798;11.770;2023-06-19T03:31:24;5.53;;;5.03;;
80494;SDS011;69819;48.798;11.770;2023-06-19T03:33:50;5.45;;;4.93;;
80494;SDS011;69819;48.798;11.770;2023-06-19T03:36:16;5.63;;;5.03;;
80494;SDS011;69819;48.798;11.770;2023-06-19T03:38:41;6.03;;;5.30;;
80494;SDS011;69819;48.798;11.770;2023-06-19T03:41:07;5.97;;;5.05;;
80494;SDS011;69819;48.798;11.770;2023-06-19T03:43:33;7.60;;;5.60;;
80494;SDS011;69819;48.798;11.770;2023-06-19T03:45:59;5.65;;;5.05;;
80494;SDS011;69819;48.798;11.770;2023-06-19T03:48:24;5.97;;;5.15;;
80494;SDS011;69819;48.798;11.770;2023-06-19T03:50:50;6.20;;;5.32;;
80494;SDS011;69819;48.798;11.770;2023-06-19T03:53:16;6.05;;;5.28;;
80494;SDS011;69819;48.798;11.770;2023-06-19T03:55:42;5.88;;;5.18;;
80494;SDS011;69819;48.798;11.770;2023-06-19T03:58:09;6.25;;;5.65;;
80494;SDS011;69819;48.798;11.770;2023-06-19T04:00:35;7.32;;;5.25;;
80494;SDS011;69819;48.798;11.770;2023-06-19T04:03:01;6.13;;;5.53;;
80494;SDS011;69819;48.798;11.770;2023-06-19T04:05:26;5.57;;;4.97;;
80494;SDS011;69819;48.798;11.770;2023-06-19T04:07:52;7.18;;;5.53;;
80494;SDS011;69819;48.798;11.770;2023-06-19T04:10:18;5.97;;;5.38;;
80494;SDS011;69819;48.798;11.770;2023-06-19T04:12:44;8.02;;;5.07;;
80494;SDS011;69819;48.798;11.770;2023-06-19T04:15:10;8.07;;;5.68;;
80494;SDS011;69819;48.798;11.770;2023-06-19T04:17:36;5.97;;;5.22;;
80494;SDS011;69819;48.798;11.770;2023-06-19T04:20:02;6.00;;;5.50;;
80494;SDS011;69819;48.798;11.770;2023-06-19T04:22:36;8.18;;;5.80;;
80494;SDS011;69819;48.798;11.770;2023-06-19T04:25:04;6.78;;;5.60;;
80494;SDS011;69819;48.798;11.770;2023-06-19T04:27:35;7.32;;;5.65;;
80494;SDS011;69819;48.798;11.770;2023-06-19T04:30:01;7.50;;;6.00;;
80494;SDS011;69819;48.798;11.770;2023-06-19T04:32:29;7.90;;;6.32;;
80494;SDS011;69819;48.798;11.770;2023-06-19T04:34:55;5.97;;;5.38;;
80494;SDS011;69819;48.798;11.770;2023-06-19T04:37:22;7.35;;;6.05;;
80494;SDS011;69819;48.798;11.770;2023-06-19T04:39:48;6.38;;;5.65;;
80494;SDS011;69819;48.798;11.770;2023-06-19T04:42:14;7.50;;;5.97;;
80494;SDS011;69819;48.798;11.770;2023-06-19T04:44:48;6.35;;;5.70;;
80494;SDS011;69819;48.798;11.770;2023-06-19T04:47:16;6.70;;;6.00;;
80494;SDS011;69819;48.798;11.770;2023-06-19T04:49:44;6.30;;;5.70;;
80494;SDS011;69819;48.798;11.770;2023-06-19T04:52:11;6.80;;;5.63;;
80494;SDS011;69819;48.798;11.770;2023-06-19T04:54:37;7.22;;;5.90;;
80494;SDS011;69819;48.798;11.770;2023-06-19T04:57:03;6.18;;;5.57;;
80494;SDS011;69819;48.798;11.770;2023-06-19T04:59:29;7.13;;;5.30;;
80494;SDS011;69819;48.798;11.770;2023-06-19T05:01:58;6.82;;;5.45;;
80494;SDS011;69819;48.798;11.770;2023-06-19T05:04:24;6.15;;;5.55;;
80494;SDS011;69819;48.798;11.770;2023-06-19T05:06:51;6.70;;;6.05;;
80494;SDS011;69819;48.798;11.770;2023-06-19T05:09:17;6.28;;;5.50;;
80494;SDS011;69819;48.798;11.770;2023-06-19T05:11:43;6.45;;;5.78;;
80494;SDS011;69819;48.798;11.770;2023-06-19T05:14:08;6.72;;;6.07;;
80494;SDS011;69819;48.798;11.770;2023-06-19T05:16:34;6.93;;;6.32;;
80494;SDS011;69819;48.798;11.770;2023-06-19T05:19:00;6.20;;;5.60;;
80494;SDS011;69819;48.798;11.770;2023-06-19T05:21:26;8.02;;;6.07;;
80494;SDS011;69819;48.798;11.770;2023-06-19T05:23:52;6.38;;;5.78;;
80494;SDS011;69819;48.798;11.770;2023-06-19T05:26:18;6.47;;;5.82;;
80494;SDS011;69819;48.798;11.770;2023-06-19T05:28:45;7.07;;;6.13;;
80494;SDS011;69819;48.798;11.770;2023-06-19T05:31:12;6.18;;;5.60;;
80494;SDS011;69819;48.798;11.770;2023-06-19T05:33:38;12.10;;;6.00;;
80494;SDS011;69819;48.798;11.770;2023-06-19T05:36:03;6.20;;;5.57;;
80494;SDS011;69819;48.798;11.770;2023-06-19T05:38:29;6.18;;;5.57;;
80494;SDS011;69819;48.798;11.770;2023-06-19T05:40:58;6.25;;;5.65;;
80494;SDS011;69819;48.798;11.770;2023-06-19T05:43:25;6.10;;;5.50;;
80494;SDS011;69819;48.798;11.770;2023-06-19T05:45:51;5.97;;;5.38;;
80494;SDS011;69819;48.798;11.770;2023-06-19T05:48:18;8.68;;;5.93;;
80494;SDS011;69819;48.798;11.770;2023-06-19T05:50:44;7.28;;;6.00;;
80494;SDS011;69819;48.798;11.770;2023-06-19T05:53:10;6.28;;;5.68;;
80494;SDS011;69819;48.798;11.770;2023-06-19T05:55:36;7.53;;;6.32;;
80494;SDS011;69819;48.798;11.770;2023-06-19T05:58:02;6.20;;;5.60;;
80494;SDS011;69819;48.798;11.770;2023-06-19T06:00:29;6.68;;;5.97;;
80494;SDS011;69819;48.798;11.770;2023-06-19T06:02:56;6.60;;;5.85;;
80494;SDS011;69819;48.798;11.770;2023-06-19T06:05:26;7.88;;;5.15;;
80494;SDS011;69819;48.798;11.770;2023-06-19T06:07:53;6.68;;;5.93;;
80494;SDS011;69819;48.798;11.770;2023-06-19T06:10:20;6.53;;;5.55;;
80494;SDS011;69819;48.798;11.770;2023-06-19T06:12:48;6.57;;;5.63;;
80494;SDS011;69819;48.798;11.770;2023-06-19T06:15:14;8.40;;;5.68;;
80494;SDS011;69819;48.798;11.770;2023-06-19T06:17:40;6.72;;;6.03;;
80494;SDS011;69819;48.798;11.770;2023-06-19T06:20:06;6.70;;;6.00;;
80494;SDS011;69819;48.798;11.770;2023-06-19T06:22:37;6.25;;;5.68;;
80494;SDS011;69819;48.798;11.770;2023-06-19T06:25:06;7.13;;;5.90;;
80494;SDS011;69819;48.798;11.770;2023-06-19T06:27:33;6.50;;;5.82;;
80494;SDS011;69819;48.798;11.770;2023-06-19T06:29:59;10.93;;;6.53;;
80494;SDS011;69819;48.798;11.770;2023-06-19T06:32:25;6.90;;;5.95;;
80494;SDS011;69819;48.798;11.770;2023-06-19T06:34:53;6.65;;;5.90;;
80494;SDS011;69819;48.798;11.770;2023-06-19T06:37:20;6.50;;;5.50;;
80494;SDS011;69819;48.798;11.770;2023-06-19T06:39:48;6.75;;;6.15;;
80494;SDS011;69819;48.798;11.770;2023-06-19T06:42:14;7.05;;;5.95;;
80494;SDS011;69819;48.798;11.770;2023-06-19T06:44:41;7.90;;;6.15;;
80494;SDS011;69819;48.798;11.770;2023-06-19T06:47:07;9.70;;;5.80;;
80494;SDS011;69819;48.798;11.770;2023-06-19T06:49:33;6.38;;;5.75;;
80494;SDS011;69819;48.798;11.770;2023-06-19T06:51:59;6.53;;;5.93;;
80494;SDS011;69819;48.798;11.770;2023-06-19T06:54:25;6.25;;;5.65;;
80494;SDS011;69819;48.798;11.770;2023-06-19T06:56:51;5.97;;;5.10;;
80494;SDS011;69819;48.798;11.770;2023-06-19T06:59:21;6.32;;;5.75;;
80494;SDS011;69819;48.798;11.770;2023-06-19T07:01:48;6.25;;;5.75;;
80494;SDS011;69819;48.798;11.770;2023-06-19T07:04:13;6.22;;;5.63;;
80494;SDS011;69819;48.798;11.770;2023-06-19T07:06:39;6.60;;;6.00;;
80494;SDS011;69819;48.798;11.770;2023-06-19T07:09:05;5.93;;;5.40;;
80494;SDS011;69819;48.798;11.770;2023-06-19T07:11:31;6.15;;;5.55;;
80494;SDS011;69819;48.798;11.770;2023-06-19T07:13:56;8.45;;;6.18;;
80494;SDS011;69819;48.798;11.770;2023-06-19T07:16:22;6.93;;;5.88;;
80494;SDS011;69819;48.798;11.770;2023-06-19T07:18:48;7.20;;;5.90;;
80494;SDS011;69819;48.798;11.770;2023-06-19T07:21:14;6.80;;;6.05;;
80494;SDS011;69819;48.798;11.770;2023-06-19T07:23:40;6.35;;;5.75;;
80494;SDS011;69819;48.798;11.770;2023-06-19T07:26:08;6.43;;;5.82;;
80494;SDS011;69819;48.798;11.770;2023-06-19T07:28:34;5.85;;;5.35;;
80494;SDS011;69819;48.798;11.770;2023-06-19T07:31:03;6.15;;;5.47;;
80494;SDS011;69819;48.798;11.770;2023-06-19T07:33:29;6.03;;;5.47;;
80494;SDS011;69819;48.798;11.770;2023-06-19T07:35:55;6.25;;;5.65;;
80494;SDS011;69819;48.798;11.770;2023-06-19T07:38:21;7.15;;;6.28;;
80494;SDS011;69819;48.798;11.770;2023-06-19T07:40:48;6.38;;;5.85;;
80494;SDS011;69819;48.798;11.770;2023-06-19T07:43:14;6.68;;;6.07;;
80494;SDS011;69819;48.798;11.770;2023-06-19T07:45:42;6.47;;;5.97;;
80494;SDS011;69819;48.798;11.770;2023-06-19T07:48:08;7.10;;;6.40;;
80494;SDS011;69819;48.798;11.770;2023-06-19T07:50:34;8.90;;;7.28;;
80494;SDS011;69819;48.798;11.770;2023-06-19T07:52:59;11.35;;;8.05;;
80494;SDS011;69819;48.798;11.770;2023-06-19T07:55:25;9.77;;;8.00;;
80494;SDS011;69819;48.798;11.770;2023-06-19T07:57:51;8.20;;;6.93;;
80494;SDS011;69819;48.798;11.770;2023-06-19T08:00:17;7.30;;;6.18;;
80494;SDS011;69819;48.798;11.770;2023-06-19T08:02:43;7.20;;;6.57;;
80494;SDS011;69819;48.798;11.770;2023-06-19T08:05:09;7.00;;;6.10;;
80494;SDS011;69819;48.798;11.770;2023-06-19T08:07:36;6.07;;;5.50;;
80494;SDS011;69819;48.798;11.770;2023-06-19T08:10:02;7.78;;;6.47;;
80494;SDS011;69819;48.798;11.770;2023-06-19T08:12:31;6.57;;;6.05;;
80494;SDS011;69819;48.798;11.770;2023-06-19T08:14:58;6.05;;;5.55;;
80494;SDS011;69819;48.798;11.770;2023-06-19T08:17:23;8.40;;;5.50;;
80494;SDS011;69819;48.798;11.770;2023-06-19T08:19:49;6.18;;;5.68;;
80494;SDS011;69819;48.798;11.770;2023-06-19T08:22:15;6.40;;;5.80;;
80494;SDS011;69819;48.798;11.770;2023-06-19T08:24:41;5.90;;;5.40;;
80494;SDS011;69819;48.798;11.770;2023-06-19T08:27:07;5.82;;;5.32;;
80494;SDS011;69819;48.798;11.770;2023-06-19T08:29:33;5.78;;;5.30;;
80494;SDS011;69819;48.798;11.770;2023-06-19T08:31:58;5.80;;;5.32;;
80494;SDS011;69819;48.798;11.770;2023-06-19T08:34:24;6.38;;;5.78;;
80494;SDS011;69819;48.798;11.770;2023-06-19T08:36:51;6.50;;;5.90;;
80494;SDS011;69819;48.798;11.770;2023-06-19T08:39:16;6.38;;;5.88;;
80494;SDS011;69819;48.798;11.770;2023-06-19T08:41:43;6.15;;;5.63;;
80494;SDS011;69819;48.798;11.770;2023-06-19T08:44:09;6.38;;;5.78;;
80494;SDS011;69819;48.798;11.770;2023-06-19T08:46:34;6.50;;;5.95;;
80494;SDS011;69819;48.798;11.770;2023-06-19T08:49:03;6.45;;;5.82;;
80494;SDS011;69819;48.798;11.770;2023-06-19T08:51:31;8.95;;;5.95;;
80494;SDS011;69819;48.798;11.770;2023-06-19T08:54:01;6.45;;;5.68;;
80494;SDS011;69819;48.798;11.770;2023-06-19T08:56:29;6.20;;;5.75;;
80494;SDS011;69819;48.798;11.770;2023-06-19T08:59:15;7.55;;;6.90;;
80494;SDS011;69819;48.798;11.770;2023-06-19T09:01:50;6.85;;;6.20;;
80494;SDS011;69819;48.798;11.770;2023-06-19T09:04:27;6.45;;;5.90;;
80494;SDS011;69819;48.798;11.770;2023-06-19T09:06:54;6.57;;;5.93;;
80494;SDS011;69819;48.798;11.770;2023-06-19T09:09:25;9.52;;;6.30;;
80494;SDS011;69819;48.798;11.770;2023-06-19T09:12:04;7.03;;;5.97;;
80494;SDS011;69819;48.798;11.770;2023-06-19T09:17:03;7.00;;;6.50;;
80494;SDS011;69819;48.798;11.770;2023-06-19T09:19:37;6.85;;;5.95;;
80494;SDS011;69819;48.798;11.770;2023-06-19T09:22:05;7.22;;;6.55;;
80494;SDS011;69819;48.798;11.770;2023-06-19T09:24:36;6.93;;;6.28;;
80494;SDS011;69819;48.798;11.770;2023-06-19T09:27:15;6.78;;;6.18;;
80494;SDS011;69819;48.798;11.770;2023-06-19T09:29:47;6.97;;;6.38;;
80494;SDS011;69819;48.798;11.770;2023-06-19T09:32:23;6.80;;;6.20;;
80494;SDS011;69819;48.798;11.770;2023-06-19T09:34:56;7.78;;;6.50;;
80494;SDS011;69819;48.798;11.770;2023-06-19T09:37:26;7.13;;;6.45;;
80494;SDS011;69819;48.798;11.770;2023-06-19T09:39:56;7.32;;;6.25;;
80494;SDS011;69819;48.798;11.770;2023-06-19T09:42:31;6.88;;;6.22;;
80494;SDS011;69819;48.798;11.770;2023-06-19T09:45:00;7.40;;;6.70;;
80494;SDS011;69819;48.798;11.770;2023-06-19T09:47:32;8.02;;;6.32;;
80494;SDS011;69819;48.798;11.770;2023-06-19T09:50:07;6.47;;;5.80;;
80494;SDS011;69819;48.798;11.770;2023-06-19T09:52:37;6.55;;;5.32;;
80494;SDS011;69819;48.798;11.770;2023-06-19T09:55:05;5.80;;;5.30;;
80494;SDS011;69819;48.798;11.770;2023-06-19T09:57:33;6.70;;;5.82;;
80494;SDS011;69819;48.798;11.770;2023-06-19T10:00:00;6.40;;;5.80;;
80494;SDS011;69819;48.798;11.770;2023-06-19T10:02:36;6.40;;;5.55;;
80494;SDS011;69819;48.798;11.770;2023-06-19T10:05:03;6.10;;;5.50;;
80494;SDS011;69819;48.798;11.770;2023-06-19T10:07:33;6.03;;;5.53;;
80494;SDS011;69819;48.798;11.770;2023-06-19T10:10:07;7.63;;;5.78;;
80494;SDS011;69819;48.798;11.770;2023-06-19T10:17:52;5.20;;;4.57;;
80494;SDS011;69819;48.798;11.770;2023-06-19T10:20:39;5.25;;;4.72;;
80494;SDS011;69819;48.798;11.770;2023-06-19T10:23:09;4.95;;;4.55;;
80494;SDS011;69819;48.798;11.770;2023-06-19T10:25:58;5.47;;;4.97;;
80494;SDS011;69819;48.798;11.770;2023-06-19T10:31:00;5.82;;;5.32;;
80494;SDS011;69819;48.798;11.770;2023-06-19T10:33:33;6.10;;;5.47;;
80494;SDS011;69819;48.798;11.770;2023-06-19T10:36:18;5.70;;;5.13;;
80494;SDS011;69819;48.798;11.770;2023-06-19T10:38:47;7.63;;;4.97;;
80494;SDS011;69819;48.798;11.770;2023-06-19T10:41:15;5.80;;;5.30;;
80494;SDS011;69819;48.798;11.770;2023-06-19T10:46:24;5.70;;;5.30;;
80494;SDS011;69819;48.798;11.770;2023-06-19T10:48:55;5.70;;;5.22;;
80494;SDS011;69819;48.798;11.770;2023-06-19T10:51:26;11.55;;;5.57;;
80494;SDS011;69819;48.798;11.770;2023-06-19T10:53:56;5.97;;;5.38;;
80494;SDS011;69819;48.798;11.770;2023-06-19T10:56:23;5.57;;;5.07;;
80494;SDS011;69819;48.798;11.770;2023-06-19T10:59:03;6.07;;;5.40;;
80494;SDS011;69819;48.798;11.770;2023-06-19T11:01:38;5.88;;;5.35;;
80494;SDS011;69819;48.798;11.770;2023-06-19T11:04:11;6.47;;;5.53;;
80494;SDS011;69819;48.798;11.770;2023-06-19T11:06:40;5.60;;;5.20;;
80494;SDS011;69819;48.798;11.770;2023-06-19T11:09:08;5.97;;;5.38;;
80494;SDS011;69819;48.798;11.770;2023-06-19T11:11:40;6.25;;;5.75;;
80494;SDS011;69819;48.798;11.770;2023-06-19T11:14:12;5.60;;;5.10;;
80494;SDS011;69819;48.798;11.770;2023-06-19T11:16:44;6.25;;;5.43;;
80494;SDS011;69819;48.798;11.770;2023-06-19T11:19:16;5.55;;;5.13;;
80494;SDS011;69819;48.798;11.770;2023-06-19T11:21:47;5.20;;;4.80;;
80494;SDS011;69819;48.798;11.770;2023-06-19T11:24:16;5.38;;;4.90;;
80494;SDS011;69819;48.798;11.770;2023-06-19T11:26:44;5.93;;;5.20;;
80494;SDS011;69819;48.798;11.770;2023-06-19T11:29:16;5.65;;;5.15;;
80494;SDS011;69819;48.798;11.770;2023-06-19T11:31:50;5.40;;;4.95;;
80494;SDS011;69819;48.798;11.770;2023-06-19T11:34:34;5.47;;;4.90;;
80494;SDS011;69819;48.798;11.770;2023-06-19T11:37:22;5.05;;;4.65;;
80494;SDS011;69819;48.798;11.770;2023-06-19T11:39:48;5.10;;;4.63;;
80494;SDS011;69819;48.798;11.770;2023-06-19T11:42:17;5.32;;;4.82;;
80494;SDS011;69819;48.798;11.770;2023-06-19T11:44:56;4.82;;;4.43;;
80494;SDS011;69819;48.798;11.770;2023-06-19T11:47:31;4.93;;;4.53;;
80494;SDS011;69819;48.798;11.770;2023-06-19T11:49:58;5.07;;;4.68;;
80494;SDS011;69819;48.798;11.770;2023-06-19T11:52:25;4.57;;;4.28;;
80494;SDS011;69819;48.798;11.770;2023-06-19T11:54:51;4.63;;;4.22;;
80494;SDS011;69819;48.798;11.770;2023-06-19T11:57:17;4.60;;;4.28;;
80494;SDS011;69819;48.798;11.770;2023-06-19T11:59:43;4.57;;;4.28;;
80494;SDS011;69819;48.798;11.770;2023-06-19T12:02:08;4.00;;;3.70;;
80494;SDS011;69819;48.798;11.770;2023-06-19T12:04:34;4.28;;;3.95;;
80494;SDS011;69819;48.798;11.770;2023-06-19T12:07:01;4.03;;;3.72;;
80494;SDS011;69819;48.798;11.770;2023-06-19T12:09:29;4.43;;;4.13;;
80494;SDS011;69819;48.798;11.770;2023-06-19T12:11:56;5.03;;;4.53;;
80494;SDS011;69819;48.798;11.770;2023-06-19T12:14:23;4.78;;;4.38;;
80494;SDS011;69819;48.798;11.770;2023-06-19T12:16:49;4.30;;;3.92;;
80494;SDS011;69819;48.798;11.770;2023-06-19T12:19:16;4.55;;;4.20;;
80494;SDS011;69819;48.798;11.770;2023-06-19T12:21:42;5.78;;;3.45;;
80494;SDS011;69819;48.798;11.770;2023-06-19T12:24:08;3.97;;;3.42;;
80494;SDS011;69819;48.798;11.770;2023-06-19T12:26:34;3.67;;;3.38;;
80494;SDS011;69819;48.798;11.770;2023-06-19T12:29:04;3.40;;;3.20;;
80494;SDS011;69819;48.798;11.770;2023-06-19T12:31:32;3.72;;;3.30;;
80494;SDS011;69819;48.798;11.770;2023-06-19T12:33:59;3.83;;;3.53;;
80494;SDS011;69819;48.798;11.770;2023-06-19T12:36:26;3.78;;;3.47;;
80494;SDS011;69819;48.798;11.770;2023-06-19T12:38:53;4.63;;;3.67;;
80494;SDS011;69819;48.798;11.770;2023-06-19T12:41:22;3.45;;;3.25;;
80494;SDS011;69819;48.798;11.770;2023-06-19T12:43:48;5.28;;;3.75;;
80494;SDS011;69819;48.798;11.770;2023-06-19T12:46:14;4.13;;;3.83;;
80494;SDS011;69819;48.798;11.770;2023-06-19T12:48:43;3.80;;;3.50;;
80494;SDS011;69819;48.798;11.770;2023-06-19T12:51:08;3.55;;;3.35;;
80494;SDS011;69819;48.798;11.770;2023-06-19T12:53:34;6.72;;;3.83;;
80494;SDS011;69819;48.798;11.770;2023-06-19T12:56:00;3.92;;;3.53;;
80494;SDS011;69819;48.798;11.770;2023-06-19T12:58:26;3.92;;;3.28;;
80494;SDS011;69819;48.798;11.770;2023-06-19T13:00:53;3.40;;;3.15;;
80494;SDS011;69819;48.798;11.770;2023-06-19T13:03:19;3.63;;;3.38;;
80494;SDS011;69819;48.798;11.770;2023-06-19T13:05:48;4.30;;;3.72;;
80494;SDS011;69819;48.798;11.770;2023-06-19T13:08:14;3.42;;;3.22;;
80494;SDS011;69819;48.798;11.770;2023-06-19T13:10:40;3.47;;;3.17;;
80494;SDS011;69819;48.798;11.770;2023-06-19T13:13:06;3.22;;;3.00;;
80494;SDS011;69819;48.798;11.770;2023-06-19T13:15:32;2.67;;;2.47;;
80494;SDS011;69819;48.798;11.770;2023-06-19T13:17:59;3.95;;;2.72;;
80494;SDS011;69819;48.798;11.770;2023-06-19T13:20:25;3.00;;;2.80;;
80494;SDS011;69819;48.798;11.770;2023-06-19T13:22:51;2.70;;;2.50;;
80494;SDS011;69819;48.798;11.770;2023-06-19T13:25:17;2.75;;;2.55;;
80494;SDS011;69819;48.798;11.770;2023-06-19T13:27:45;3.45;;;3.15;;
80494;SDS011;69819;48.798;11.770;2023-06-19T13:30:11;2.55;;;2.35;;
80494;SDS011;69819;48.798;11.770;2023-06-19T13:32:37;3.08;;;2.88;;
80494;SDS011;69819;48.798;11.770;2023-06-19T13:35:04;3.50;;;3.20;;
80494;SDS011;69819;48.798;11.770;2023-06-19T13:37:33;3.33;;;2.83;;
80494;SDS011;69819;48.798;11.770;2023-06-19T13:40:00;3.30;;;3.03;;
80494;SDS011;69819;48.798;11.770;2023-06-19T13:42:29;3.25;;;3.05;;
80494;SDS011;69819;48.798;11.770;2023-06-19T13:44:55;3.00;;;2.80;;
80494;SDS011;69819;48.798;11.770;2023-06-19T13:47:21;3.20;;;2.88;;
80494;SDS011;69819;48.798;11.770;2023-06-19T13:49:50;3.28;;;3.08;;
80494;SDS011;69819;48.798;11.770;2023-06-19T13:52:16;2.90;;;2.70;;
80494;SDS011;69819;48.798;11.770;2023-06-19T13:54:42;3.20;;;2.95;;
80494;SDS011;69819;48.798;11.770;2023-06-19T13:57:08;3.40;;;3.10;;
80494;SDS011;69819;48.798;11.770;2023-06-19T13:59:34;3.80;;;3.17;;
80494;SDS011;69819;48.798;11.770;2023-06-19T14:01:59;4.32;;;3.33;;
80494;SDS011;69819;48.798;11.770;2023-06-19T14:04:25;3.83;;;3.53;;
80494;SDS011;69819;48.798;11.770;2023-06-19T14:06:51;3.65;;;3.35;;
80494;SDS011;69819;48.798;11.770;2023-06-19T14:09:17;3.78;;;3.47;;
80494;SDS011;69819;48.798;11.770;2023-06-19T14:11:42;4.30;;;3.88;;
80494;SDS011;69819;48.798;11.770;2023-06-19T14:14:09;3.95;;;3.58;;
80494;SDS011;69819;48.798;11.770;2023-06-19T14:16:34;4.53;;;4.13;;
80494;SDS011;69819;48.798;11.770;2023-06-19T14:19:00;3.83;;;3.53;;
80494;SDS011;69819;48.798;11.770;2023-06-19T14:21:26;3.90;;;3.60;;
80494;SDS011;69819;48.798;11.770;2023-06-19T14:23:52;5.20;;;4.00;;
80494;SDS011;69819;48.798;11.770;2023-06-19T14:26:17;4.80;;;4.20;;
80494;SDS011;69819;48.798;11.770;2023-06-19T14:28:43;4.32;;;4.03;;
80494;SDS011;69819;48.798;11.770;2023-06-19T14:31:09;4.53;;;4.22;;
80494;SDS011;69819;48.798;11.770;2023-06-19T14:33:35;4.80;;;4.35;;
80494;SDS011;69819;48.798;11.770;2023-06-19T14:36:02;4.47;;;4.07;;
80494;SDS011;69819;48.798;11.770;2023-06-19T14:38:29;4.45;;;4.15;;
80494;SDS011;69819;48.798;11.770;2023-06-19T14:40:58;4.45;;;4.10;;
80494;SDS011;69819;48.798;11.770;2023-06-19T14:43:26;4.40;;;4.10;;
80494;SDS011;69819;48.798;11.770;2023-06-19T14:45:52;4.63;;;4.22;;
80494;SDS011;69819;48.798;11.770;2023-06-19T14:48:18;4.05;;;3.72;;